createdAt,value
2019-02-05T00:02:01.332Z,99.90
2019-02-05T00:04:27.399Z,99.90
2019-02-05T00:06:53.498Z,99.90
2019-02-05T00:09:19.563Z,99.90
2019-02-05T00:11:45.734Z,99.90
2019-02-05T00:14:11.816Z,99.90
2019-02-05T00:16:38.500Z,99.90
2019-02-05T00:19:04.695Z,99.90
2019-02-05T00:21:30.867Z,99.90
2019-02-05T00:23:57.064Z,99.90
2019-02-05T00:26:23.162Z,99.90
2019-02-05T00:28:49.365Z,99.90
2019-02-05T00:31:15.639Z,99.90
2019-02-05T00:33:41.824Z,99.90
2019-02-05T00:36:08.228Z,99.90
2019-02-05T00:38:35.226Z,99.90
2019-02-05T00:41:01.424Z,99.90
2019-02-05T00:43:27.495Z,99.90
2019-02-05T00:45:53.708Z,99.90
2019-02-05T00:48:19.787Z,99.90
2019-02-05T00:50:45.965Z,99.90
2019-02-05T00:53:12.147Z,99.90
2019-02-05T00:55:38.629Z,99.90
2019-02-05T00:58:04.811Z,99.90
2019-02-05T01:00:31.883Z,99.90
2019-02-05T01:02:58.809Z,99.90
2019-02-05T01:05:25.306Z,99.90
2019-02-05T01:07:52.072Z,99.90
2019-02-05T01:10:20.171Z,99.90
2019-02-05T01:12:46.273Z,99.90
2019-02-05T01:15:21.731Z,99.90
2019-02-05T01:17:47.920Z,99.90
2019-02-05T01:20:16.215Z,99.90
2019-02-05T01:22:42.381Z,99.90
2019-02-05T01:25:08.995Z,99.90
2019-02-05T01:27:35.207Z,99.90
2019-02-05T01:30:03.699Z,99.90
2019-02-05T01:32:29.763Z,99.90
2019-02-05T01:34:55.855Z,99.90
2019-02-05T01:37:21.943Z,99.90
2019-02-05T01:39:48.125Z,99.90
2019-02-05T01:42:14.292Z,99.90
2019-02-05T01:45:00.759Z,99.90
2019-02-05T01:47:26.923Z,99.90
2019-02-05T01:49:53.029Z,99.90
2019-02-05T01:52:19.139Z,99.90
2019-02-05T01:54:45.214Z,99.90
2019-02-05T01:57:11.283Z,99.90
2019-02-05T01:59:37.371Z,99.90
2019-02-05T02:02:03.634Z,99.90
2019-02-05T02:04:30.015Z,99.90
2019-02-05T02:06:56.183Z,99.90
2019-02-05T02:09:22.368Z,99.90
2019-02-05T02:11:48.440Z,99.90
2019-02-05T02:14:14.552Z,99.90
2019-02-05T02:16:40.727Z,99.90
2019-02-05T02:19:06.841Z,99.90
2019-02-05T02:21:32.906Z,99.90
2019-02-05T02:23:59.180Z,99.90
2019-02-05T02:26:25.301Z,99.90
2019-02-05T02:28:51.475Z,99.90
2019-02-05T02:31:17.642Z,99.90
2019-02-05T02:33:43.836Z,99.90
2019-02-05T02:36:09.940Z,99.90
2019-02-05T02:38:36.120Z,99.90
2019-02-05T02:41:02.421Z,99.90
2019-02-05T02:43:28.600Z,99.90
2019-02-05T02:45:54.983Z,99.90
2019-02-05T02:48:21.087Z,99.90
2019-02-05T02:50:47.260Z,99.90
2019-02-05T02:53:13.443Z,99.90
2019-02-05T02:55:39.644Z,99.90
2019-02-05T02:58:05.818Z,99.90
2019-02-05T03:00:31.983Z,99.90
2019-02-05T03:02:58.192Z,99.90
2019-02-05T03:05:24.784Z,99.90
2019-02-05T03:07:51.400Z,99.90
2019-02-05T03:10:21.371Z,99.90
2019-02-05T03:12:47.730Z,99.90
2019-02-05T03:15:14.004Z,99.90
2019-02-05T03:17:40.225Z,99.90
2019-02-05T03:20:09.713Z,99.90
2019-02-05T03:22:35.906Z,99.90
2019-02-05T03:25:05.300Z,99.90
2019-02-05T03:27:31.875Z,99.90
2019-02-05T03:29:58.055Z,99.90
2019-02-05T03:32:24.249Z,99.90
2019-02-05T03:34:50.416Z,99.90
2019-02-05T03:37:16.493Z,99.90
2019-02-05T03:39:42.741Z,99.90
2019-02-05T03:42:08.922Z,99.90
2019-02-05T03:44:35.096Z,99.90
2019-02-05T03:47:01.503Z,99.90
2019-02-05T03:49:28.583Z,99.90
2019-02-05T03:51:58.576Z,99.90
2019-02-05T03:54:34.132Z,99.90
2019-02-05T03:57:16.067Z,99.90
2019-02-05T03:59:48.843Z,99.90
2019-02-05T04:02:25.214Z,99.90
2019-02-05T04:05:15.973Z,99.90
2019-02-05T04:08:01.180Z,99.90
2019-02-05T04:10:58.549Z,99.90
2019-02-05T04:13:37.576Z,99.90
2019-02-05T04:16:25.416Z,99.90
2019-02-05T04:19:12.191Z,99.90
2019-02-05T04:21:51.349Z,99.90
2019-02-05T04:24:26.833Z,99.90
2019-02-05T04:26:59.863Z,99.90
2019-02-05T04:29:29.835Z,99.90
2019-02-05T04:32:22.528Z,99.90
2019-02-05T04:35:07.111Z,99.90
2019-02-05T04:37:43.269Z,99.90
2019-02-05T04:40:25.599Z,99.90
2019-02-05T04:43:04.261Z,99.90
2019-02-05T04:45:55.244Z,99.90
2019-02-05T04:48:25.244Z,99.90
2019-02-05T04:51:01.177Z,99.90
2019-02-05T04:53:34.116Z,99.90
2019-02-05T04:56:12.910Z,99.90
2019-02-05T04:58:51.984Z,99.90
2019-02-05T05:01:27.862Z,99.90
2019-02-05T05:04:06.875Z,99.90
2019-02-05T05:06:48.782Z,99.90
2019-02-05T05:09:36.899Z,99.90
2019-02-05T05:12:03.276Z,99.90
2019-02-05T05:14:29.351Z,99.90
2019-02-05T05:16:55.834Z,99.90
2019-02-05T05:19:22.134Z,99.90
2019-02-05T05:21:48.677Z,99.90
2019-02-05T05:24:15.205Z,99.90
2019-02-05T05:26:41.581Z,99.90
2019-02-05T05:29:07.760Z,99.90
2019-02-05T05:31:34.244Z,99.90
2019-02-05T05:34:00.332Z,99.90
2019-02-05T05:36:26.494Z,99.90
2019-02-05T05:38:52.783Z,99.90
2019-02-05T05:41:39.027Z,99.90
2019-02-05T05:44:05.211Z,99.90
2019-02-05T05:46:31.289Z,99.90
2019-02-05T05:48:57.481Z,99.90
2019-02-05T05:51:23.644Z,99.90
2019-02-05T05:53:49.742Z,99.90
2019-02-05T05:56:16.324Z,99.90
2019-02-05T05:58:42.425Z,99.90
2019-02-05T06:01:08.495Z,99.90
2019-02-05T06:03:34.687Z,99.90
2019-02-05T06:06:00.838Z,99.90
2019-02-05T06:08:27.014Z,99.90
2019-02-05T06:10:53.166Z,99.90
2019-02-05T06:13:19.376Z,99.90
2019-02-05T06:15:45.564Z,99.90
2019-02-05T06:18:12.081Z,99.90
2019-02-05T06:20:38.241Z,99.90
2019-02-05T06:23:04.420Z,99.90
2019-02-05T06:25:30.694Z,99.90
2019-02-05T06:27:56.884Z,99.90
2019-02-05T06:30:22.969Z,99.90
2019-02-05T06:32:49.178Z,99.90
2019-02-05T06:35:15.500Z,99.90
2019-02-05T06:37:41.877Z,99.90
2019-02-05T06:40:12.172Z,99.90
2019-02-05T06:42:38.354Z,99.90
2019-02-05T06:45:08.351Z,99.90
2019-02-05T06:47:34.506Z,99.90
2019-02-05T06:50:00.617Z,99.90
2019-02-05T06:52:26.792Z,99.90
2019-02-05T06:54:52.983Z,99.90
2019-02-05T06:57:19.129Z,99.90
2019-02-05T06:59:45.724Z,99.90
2019-02-05T07:02:12.008Z,99.90
2019-02-05T07:04:38.197Z,99.90
2019-02-05T07:07:04.371Z,99.90
2019-02-05T07:09:30.576Z,99.90
2019-02-05T07:11:57.440Z,99.90
2019-02-05T07:14:23.540Z,99.90
2019-02-05T07:16:49.756Z,99.90
2019-02-05T07:19:15.914Z,99.90
2019-02-05T07:21:42.409Z,99.90
2019-02-05T07:24:08.580Z,99.90
2019-02-05T07:26:34.776Z,99.90
2019-02-05T07:29:02.142Z,99.90
2019-02-05T07:31:28.540Z,99.90
2019-02-05T07:33:54.708Z,99.90
2019-02-05T07:36:20.875Z,99.90
2019-02-05T07:38:47.051Z,99.90
2019-02-05T07:41:13.215Z,99.90
2019-02-05T07:43:39.407Z,99.90
2019-02-05T07:46:05.875Z,99.90
2019-02-05T07:48:32.070Z,99.90
2019-02-05T07:50:58.230Z,99.90
2019-02-05T07:53:24.426Z,99.90
2019-02-05T07:55:50.587Z,99.90
2019-02-05T07:58:16.786Z,99.90
2019-02-05T08:00:42.970Z,99.90
2019-02-05T08:03:09.161Z,99.90
2019-02-05T08:05:35.353Z,99.90
2019-02-05T08:08:02.424Z,99.90
2019-02-05T08:10:29.491Z,99.90
2019-02-05T08:12:56.068Z,99.90
2019-02-05T08:15:32.972Z,99.90
2019-02-05T08:17:59.088Z,99.90
2019-02-05T08:20:25.387Z,99.90
2019-02-05T08:22:51.655Z,99.90
2019-02-05T08:25:17.839Z,99.90
2019-02-05T08:27:43.935Z,99.90
2019-02-05T08:30:19.331Z,99.90
2019-02-05T08:32:45.508Z,99.90
2019-02-05T08:35:14.384Z,99.90
2019-02-05T08:37:40.560Z,99.90
2019-02-05T08:40:10.448Z,99.90
2019-02-05T08:42:36.631Z,99.90
2019-02-05T08:45:06.624Z,99.90
2019-02-05T08:47:32.808Z,99.90
2019-02-05T08:49:59.300Z,99.90
2019-02-05T08:52:25.473Z,99.90
2019-02-05T08:54:51.648Z,99.90
2019-02-05T08:57:17.856Z,99.90
2019-02-05T08:59:44.045Z,99.90
2019-02-05T09:02:10.227Z,99.90
2019-02-05T09:04:36.395Z,99.90
2019-02-05T09:07:02.779Z,99.90
2019-02-05T09:09:28.967Z,99.90
2019-02-05T09:11:55.163Z,99.90
2019-02-05T09:14:21.544Z,99.90
2019-02-05T09:16:47.737Z,99.90
2019-02-05T09:19:13.916Z,99.90
2019-02-05T09:21:40.088Z,99.90
2019-02-05T09:24:06.274Z,99.90
2019-02-05T09:26:32.445Z,99.90
2019-02-05T09:28:58.633Z,99.90
2019-02-05T09:31:24.803Z,99.90
2019-02-05T09:33:50.996Z,99.90
2019-02-05T09:36:17.484Z,99.90
2019-02-05T09:38:43.656Z,99.90
2019-02-05T09:41:09.896Z,99.90
2019-02-05T09:43:36.079Z,99.90
2019-02-05T09:46:02.458Z,99.90
2019-02-05T09:48:28.658Z,99.90
2019-02-05T09:50:55.051Z,99.90
2019-02-05T09:53:21.247Z,99.90
2019-02-05T09:55:47.532Z,99.90
2019-02-05T09:58:15.515Z,99.90
2019-02-05T10:00:41.795Z,99.90
2019-02-05T10:03:07.970Z,99.90
2019-02-05T10:05:34.855Z,99.90
2019-02-05T10:08:01.068Z,99.90
2019-02-05T10:10:27.360Z,99.90
2019-02-05T10:12:53.736Z,99.90
2019-02-05T10:15:25.851Z,99.90
2019-02-05T10:17:52.040Z,99.90
2019-02-05T10:20:18.705Z,99.90
2019-02-05T10:22:46.788Z,99.90
2019-02-05T10:25:13.676Z,99.90
2019-02-05T10:27:39.850Z,99.90
2019-02-05T10:30:23.689Z,99.90
2019-02-05T10:32:49.912Z,99.90
2019-02-05T10:35:17.183Z,99.90
2019-02-05T10:37:43.375Z,99.90
2019-02-05T10:40:11.532Z,99.90
2019-02-05T10:42:37.825Z,99.90
2019-02-05T10:45:13.490Z,99.90
2019-02-05T10:47:39.787Z,99.90
2019-02-05T10:50:08.971Z,99.90
2019-02-05T10:52:35.445Z,99.90
2019-02-05T10:55:04.537Z,99.90
2019-02-05T10:57:30.828Z,99.90
2019-02-05T11:00:07.292Z,99.90
2019-02-05T11:02:24.992Z,99.90
2019-02-05T11:04:51.184Z,99.90
2019-02-05T11:07:17.348Z,99.90
2019-02-05T11:09:43.588Z,99.90
2019-02-05T11:12:09.747Z,99.90
2019-02-05T11:14:36.216Z,99.90
2019-02-05T11:17:03.746Z,99.90
2019-02-05T11:19:29.859Z,99.90
2019-02-05T11:21:56.031Z,99.90
2019-02-05T11:24:22.098Z,99.90
2019-02-05T11:26:48.171Z,99.90
2019-02-05T11:29:14.240Z,99.90
2019-02-05T11:31:40.410Z,99.90
2019-02-05T11:34:06.595Z,99.90
2019-02-05T11:36:32.760Z,99.90
2019-02-05T11:38:59.030Z,99.90
2019-02-05T11:41:25.198Z,99.90
2019-02-05T11:43:51.274Z,99.90
2019-02-05T11:46:17.440Z,99.90
2019-02-05T11:48:43.633Z,99.90
2019-02-05T11:51:09.898Z,99.90
2019-02-05T11:53:36.291Z,99.90
2019-02-05T11:56:03.078Z,99.90
2019-02-05T11:58:29.249Z,99.90
2019-02-05T12:01:00.508Z,99.90
2019-02-05T12:03:46.565Z,99.90
2019-02-05T12:06:12.751Z,99.90
2019-02-05T12:08:39.023Z,99.90
2019-02-05T12:11:05.216Z,99.90
2019-02-05T12:13:31.392Z,99.90
2019-02-05T12:15:57.901Z,99.90
2019-02-05T12:18:24.270Z,99.90
2019-02-05T12:20:50.435Z,99.90
2019-02-05T12:23:16.728Z,99.90
2019-02-05T12:25:42.891Z,99.90
2019-02-05T12:28:09.183Z,99.90
2019-02-05T12:30:45.051Z,99.90
2019-02-05T12:33:07.920Z,99.90
2019-02-05T12:35:34.088Z,99.90
2019-02-05T12:38:00.691Z,99.90
2019-02-05T12:40:27.059Z,99.90
2019-02-05T12:42:53.260Z,99.90
2019-02-05T12:45:28.384Z,99.90
2019-02-05T12:47:55.382Z,99.90
2019-02-05T12:50:23.942Z,99.90
2019-02-05T12:52:50.220Z,99.90
2019-02-05T12:55:16.733Z,99.90
2019-02-05T12:57:42.909Z,99.90
2019-02-05T13:00:15.956Z,99.90
2019-02-05T13:02:42.036Z,99.90
2019-02-05T13:05:08.344Z,96.60
2019-02-05T13:07:34.525Z,94.70
2019-02-05T13:10:00.623Z,94.20
2019-02-05T13:12:26.993Z,94.10
2019-02-05T13:14:53.600Z,91.70
2019-02-05T13:17:19.688Z,90.50
2019-02-05T13:19:45.784Z,85.90
2019-02-05T13:22:11.859Z,78.20
2019-02-05T13:24:37.954Z,75.10
2019-02-05T13:27:04.028Z,73.50
2019-02-05T13:29:30.134Z,72.50
2019-02-05T13:31:56.300Z,70.80
2019-02-05T13:34:23.479Z,69.40
2019-02-05T13:36:49.572Z,72.30
2019-02-05T13:39:15.644Z,71.40
2019-02-05T13:41:41.783Z,71.50
2019-02-05T13:44:07.912Z,68.70
2019-02-05T13:46:33.995Z,69.10
2019-02-05T13:49:00.168Z,67.00
2019-02-05T13:51:26.261Z,66.80
2019-02-05T13:53:52.832Z,66.10
2019-02-05T13:56:18.916Z,64.60
2019-02-05T13:58:44.997Z,61.80
2019-02-05T14:01:19.544Z,63.30
2019-02-05T14:03:39.268Z,62.60
2019-02-05T14:06:05.455Z,64.50
2019-02-05T14:08:31.654Z,66.10
2019-02-05T14:10:57.821Z,66.90
2019-02-05T14:13:24.345Z,66.80
2019-02-05T14:15:51.133Z,66.60
2019-02-05T14:18:17.393Z,65.50
2019-02-05T14:20:43.576Z,66.30
2019-02-05T14:23:09.861Z,67.20
2019-02-05T14:25:35.963Z,67.80
2019-02-05T14:28:02.542Z,67.40
2019-02-05T14:30:40.504Z,66.80
2019-02-05T14:33:06.575Z,66.80
2019-02-05T14:35:32.659Z,68.50
2019-02-05T14:37:58.868Z,68.30
2019-02-05T14:40:26.051Z,68.80
2019-02-05T14:42:52.253Z,68.50
2019-02-05T14:45:18.424Z,68.70
2019-02-05T14:47:44.627Z,68.10
2019-02-05T14:50:34.224Z,68.10
2019-02-05T14:53:01.217Z,68.60
2019-02-05T14:55:27.299Z,68.20
2019-02-05T14:57:53.707Z,67.60
2019-02-05T15:00:26.097Z,66.40
2019-02-05T15:02:52.559Z,66.90
2019-02-05T15:05:18.651Z,66.30
2019-02-05T15:07:44.730Z,65.30
2019-02-05T15:10:13.028Z,66.30
2019-02-05T15:12:39.127Z,66.40
2019-02-05T15:15:09.026Z,68.10
2019-02-05T15:17:35.279Z,69.30
2019-02-05T15:20:05.551Z,70.60
2019-02-05T15:22:31.629Z,71.50
2019-02-05T15:24:57.703Z,72.70
2019-02-05T15:27:23.806Z,76.30
2019-02-05T15:29:49.899Z,79.50
2019-02-05T15:32:17.919Z,83.40
2019-02-05T15:34:44.071Z,88.30
2019-02-05T15:37:10.168Z,91.20
2019-02-05T15:39:36.636Z,93.20
2019-02-05T15:42:03.107Z,95.10
2019-02-05T15:44:29.191Z,97.10
2019-02-05T15:46:55.265Z,99.60
2019-02-05T15:49:21.363Z,99.90
2019-02-05T15:51:47.532Z,99.90
2019-02-05T15:54:13.704Z,99.90
2019-02-05T15:56:39.892Z,99.90
2019-02-05T15:59:06.463Z,99.90
2019-02-05T16:01:32.652Z,99.90
2019-02-05T16:03:58.728Z,99.90
2019-02-05T16:06:24.836Z,99.90
2019-02-05T16:08:50.905Z,99.90
2019-02-05T16:11:17.099Z,99.90
2019-02-05T16:13:43.386Z,99.90
2019-02-05T16:16:09.567Z,99.90
2019-02-05T16:18:35.660Z,99.90
2019-02-05T16:21:02.163Z,99.90
2019-02-05T16:23:28.321Z,99.90
2019-02-05T16:25:54.494Z,99.90
2019-02-05T16:28:20.576Z,99.90
2019-02-05T16:30:46.678Z,99.90
2019-02-05T16:33:12.852Z,99.90
2019-02-05T16:35:39.024Z,99.90
2019-02-05T16:38:05.226Z,99.90
2019-02-05T16:40:37.339Z,99.90
2019-02-05T16:43:04.336Z,99.90
2019-02-05T16:45:30.703Z,99.90
2019-02-05T16:47:56.903Z,99.90
2019-02-05T16:50:26.775Z,99.90
2019-02-05T16:52:53.787Z,99.90
2019-02-05T16:55:20.058Z,99.90
2019-02-05T16:57:46.745Z,99.90
2019-02-05T17:00:19.474Z,99.90
2019-02-05T17:02:45.751Z,99.90
2019-02-05T17:05:12.431Z,99.90
2019-02-05T17:07:38.524Z,99.90
2019-02-05T17:10:08.519Z,99.90
2019-02-05T17:12:34.704Z,99.90
2019-02-05T17:15:01.397Z,99.90
2019-02-05T17:17:27.491Z,99.90
2019-02-05T17:19:53.661Z,99.90
2019-02-05T17:22:19.870Z,99.90
2019-02-05T17:24:46.036Z,99.90
2019-02-05T17:27:12.222Z,99.90
2019-02-05T17:29:38.418Z,99.90
2019-02-05T17:32:24.381Z,99.90
2019-02-05T17:34:50.561Z,99.90
2019-02-05T17:37:16.760Z,99.90
2019-02-05T17:39:43.058Z,99.90
2019-02-05T17:42:09.344Z,99.90
2019-02-05T17:44:35.508Z,99.90
2019-02-05T17:47:01.701Z,99.90
2019-02-05T17:49:28.295Z,99.90
2019-02-05T17:51:54.367Z,99.90
2019-02-05T17:54:20.449Z,99.90
2019-02-05T17:56:46.658Z,99.90
2019-02-05T17:59:12.836Z,99.90
2019-02-05T18:01:39.013Z,99.90
2019-02-05T18:04:05.165Z,99.90
2019-02-05T18:06:31.228Z,99.90
2019-02-05T18:08:57.277Z,99.90
2019-02-05T18:11:23.792Z,99.90
2019-02-05T18:13:49.976Z,99.90
2019-02-05T18:16:16.156Z,99.90
2019-02-05T18:18:42.239Z,99.90
2019-02-05T18:21:11.453Z,99.90
2019-02-05T18:23:37.626Z,99.90
2019-02-05T18:26:03.816Z,99.90
2019-02-05T18:28:31.052Z,99.90
2019-02-05T18:30:57.403Z,99.90
2019-02-05T18:33:23.585Z,99.90
2019-02-05T18:35:49.790Z,99.90
2019-02-05T18:38:16.003Z,99.90
2019-02-05T18:40:42.122Z,99.90
2019-02-05T18:43:08.262Z,99.90
2019-02-05T18:45:34.443Z,99.90
2019-02-05T18:48:00.647Z,99.90
2019-02-05T18:50:28.036Z,99.90
2019-02-05T18:52:54.210Z,99.90
2019-02-05T18:55:25.835Z,99.90
2019-02-05T18:57:52.125Z,99.90
2019-02-05T19:00:24.253Z,99.90
2019-02-05T19:02:50.636Z,99.90
2019-02-05T19:05:17.032Z,99.90
2019-02-05T19:07:43.610Z,99.90
2019-02-05T19:10:18.945Z,99.90
2019-02-05T19:12:45.032Z,99.90
2019-02-05T19:15:14.212Z,99.90
2019-02-05T19:17:40.398Z,99.90
2019-02-05T19:20:08.407Z,99.90
2019-02-05T19:22:34.891Z,99.90
2019-02-05T19:25:01.665Z,99.90
2019-02-05T19:27:27.861Z,99.90
2019-02-05T19:29:53.954Z,99.90
2019-02-05T19:32:21.531Z,99.90
2019-02-05T19:34:47.634Z,99.90
2019-02-05T19:37:13.708Z,99.90
2019-02-05T19:39:59.683Z,99.90
2019-02-05T19:42:28.664Z,99.90
2019-02-05T19:44:56.748Z,99.90
2019-02-05T19:47:23.259Z,99.90
2019-02-05T19:49:49.424Z,99.90
2019-02-05T19:52:15.597Z,99.90
2019-02-05T19:54:41.847Z,99.90
2019-02-05T19:57:08.130Z,99.90
2019-02-05T19:59:37.725Z,99.90
2019-02-05T20:02:04.412Z,99.90
2019-02-05T20:04:30.485Z,99.90
2019-02-05T20:06:56.693Z,99.90
2019-02-05T20:09:22.768Z,99.90
2019-02-05T20:11:48.980Z,99.90
2019-02-05T20:14:21.741Z,99.90
2019-02-05T20:16:47.920Z,99.90
2019-02-05T20:19:14.020Z,99.90
2019-02-05T20:21:40.504Z,99.90
2019-02-05T20:24:07.572Z,99.90
2019-02-05T20:26:33.784Z,99.90
2019-02-05T20:29:03.144Z,99.90
2019-02-05T20:31:29.321Z,99.90
2019-02-05T20:33:58.333Z,99.90
2019-02-05T20:36:24.419Z,99.90
2019-02-05T20:38:50.492Z,99.90
2019-02-05T20:41:17.110Z,99.90
2019-02-05T20:43:43.274Z,99.90
2019-02-05T20:46:09.487Z,99.90
2019-02-05T20:48:35.772Z,99.90
2019-02-05T20:51:01.941Z,99.90
2019-02-05T20:53:48.027Z,99.90
2019-02-05T20:56:14.197Z,99.90
2019-02-05T20:58:40.682Z,99.90
2019-02-05T21:01:06.874Z,99.90
2019-02-05T21:03:33.082Z,99.90
2019-02-05T21:05:59.280Z,99.90
2019-02-05T21:08:25.366Z,99.90
2019-02-05T21:10:51.536Z,99.90
2019-02-05T21:13:17.632Z,99.90
2019-02-05T21:15:43.900Z,99.90
2019-02-05T21:18:10.094Z,99.90
2019-02-05T21:20:36.571Z,99.90
2019-02-05T21:23:03.452Z,99.90
2019-02-05T21:25:29.664Z,99.90
2019-02-05T21:27:58.107Z,99.90
2019-02-05T21:30:24.216Z,99.90
2019-02-05T21:32:55.285Z,99.90
2019-02-05T21:35:21.454Z,99.90
2019-02-05T21:37:47.632Z,99.90
2019-02-05T21:40:17.115Z,99.90
2019-02-05T21:42:43.197Z,99.90
2019-02-05T21:45:17.044Z,99.90
2019-02-05T21:47:40.766Z,99.90
2019-02-05T21:50:10.246Z,99.90
2019-02-05T21:52:36.428Z,99.90
2019-02-05T21:55:04.943Z,99.90
2019-02-05T21:57:31.439Z,99.90
2019-02-05T21:59:57.624Z,99.90
2019-02-05T22:02:23.697Z,99.90
2019-02-05T22:04:49.955Z,99.90
2019-02-05T22:07:16.241Z,99.90
2019-02-05T22:09:42.411Z,99.90
2019-02-05T22:12:08.556Z,99.90
2019-02-05T22:14:34.723Z,99.90
2019-02-05T22:17:00.910Z,99.90
2019-02-05T22:19:27.083Z,99.90
2019-02-05T22:21:53.300Z,99.90
2019-02-05T22:24:19.458Z,99.90
2019-02-05T22:26:45.648Z,99.90
2019-02-05T22:29:11.848Z,99.90
2019-02-05T22:31:38.012Z,99.90
2019-02-05T22:34:04.675Z,99.90
2019-02-05T22:36:30.853Z,99.90
2019-02-05T22:38:57.614Z,99.90
2019-02-05T22:41:24.124Z,99.90
2019-02-05T22:43:50.287Z,99.90
2019-02-05T22:46:16.390Z,99.90
2019-02-05T22:48:42.555Z,99.90
2019-02-05T22:51:08.751Z,99.90
2019-02-05T22:53:54.857Z,99.90
2019-02-05T22:56:21.236Z,99.90
2019-02-05T22:58:47.727Z,99.90
2019-02-05T23:01:29.731Z,99.90
2019-02-05T23:03:59.527Z,99.90
2019-02-05T23:06:32.506Z,99.90
2019-02-05T23:09:12.042Z,99.90
2019-02-05T23:12:06.078Z,99.90
2019-02-05T23:14:32.276Z,99.90
2019-02-05T23:16:58.848Z,99.90
2019-02-05T23:19:25.044Z,99.90
2019-02-05T23:21:51.620Z,99.90
2019-02-05T23:24:17.696Z,99.90
2019-02-05T23:26:43.796Z,99.90
2019-02-05T23:29:09.873Z,99.90
2019-02-05T23:31:35.956Z,99.90
2019-02-05T23:34:02.116Z,99.90
2019-02-05T23:36:28.304Z,99.90
2019-02-05T23:38:54.680Z,99.90
2019-02-05T23:41:20.771Z,99.90
2019-02-05T23:43:46.851Z,99.90
2019-02-05T23:46:12.951Z,99.90
2019-02-05T23:48:39.115Z,99.90
2019-02-05T23:51:05.403Z,99.90
2019-02-05T23:53:31.585Z,99.90
2019-02-05T23:55:57.783Z,99.90
2019-02-05T23:58:25.766Z,99.90
